OAL195 LGAV-LGMK
Flight info
| Callsign | OAL195 |
|---|---|
| Flight time | 0h 21m |
| Altitude | 13000 |
| Route | KEA L995 VARIX |
| Aircraft | B737/M-SDE2E3FGHIRWXY/LB1 |
Departure
| Time | 2026-04-21 13:39 |
|---|---|
| Airport | Athens Eleftherios Venizelos International Airport (LGAV) |
Arrival
| Time | 2026-04-21 14:00 |
|---|---|
| Airport | Mykonos Island National Airport (LGMK) |
| Time | Latitude | Longitude | Altitude | Speed | Heading |
|---|---|---|---|---|---|
| 2026-04-21 13:16 | 37.94088 | 23.95415 | 300 ft | 0 kts | 218° |
| 2026-04-21 13:30 | 37.94092 | 23.95419 | 301 ft | 4 kts | 218° |
| 2026-04-21 13:30 | 37.94114 | 23.95440 | 302 ft | 4 kts | 216° |
| 2026-04-21 13:30 | 37.94136 | 23.95460 | 300 ft | 4 kts | 212° |
| 2026-04-21 13:30 | 37.94159 | 23.95476 | 300 ft | 4 kts | 194° |
| 2026-04-21 13:31 | 37.94180 | 23.95476 | 301 ft | 2 kts | 129° |
| 2026-04-21 13:31 | 37.94182 | 23.95474 | 301 ft | 0 kts | 127° |
| 2026-04-21 13:32 | 37.94181 | 23.95474 | 301 ft | 0 kts | 127° |
| 2026-04-21 13:34 | 37.94173 | 23.95488 | 300 ft | 5 kts | 127° |
| 2026-04-21 13:34 | 37.94139 | 23.95549 | 299 ft | 2 kts | 118° |
| 2026-04-21 13:34 | 37.94128 | 23.95566 | 298 ft | 6 kts | 130° |
| 2026-04-21 13:34 | 37.94089 | 23.95627 | 298 ft | 12 kts | 128° |
| 2026-04-21 13:35 | 37.94098 | 23.95704 | 298 ft | 11 kts | 48° |
| 2026-04-21 13:35 | 37.94172 | 23.95777 | 298 ft | 16 kts | 37° |
| 2026-04-21 13:35 | 37.94273 | 23.95873 | 298 ft | 20 kts | 37° |
| 2026-04-21 13:35 | 37.94389 | 23.95984 | 299 ft | 20 kts | 37° |
| 2026-04-21 13:36 | 37.94507 | 23.96095 | 300 ft | 22 kts | 37° |
| 2026-04-21 13:36 | 37.94590 | 23.96172 | 298 ft | 10 kts | 36° |
| 2026-04-21 13:36 | 37.94642 | 23.96222 | 299 ft | 8 kts | 37° |
| 2026-04-21 13:36 | 37.94649 | 23.96229 | 298 ft | 2 kts | 40° |
| 2026-04-21 13:37 | 37.94659 | 23.96277 | 297 ft | 16 kts | 99° |
| 2026-04-21 13:37 | 37.94553 | 23.96315 | 294 ft | 22 kts | 188° |
| 2026-04-21 13:37 | 37.94406 | 23.96275 | 287 ft | 20 kts | 206° |
| 2026-04-21 13:37 | 37.94378 | 23.96250 | 286 ft | 0 kts | 217° |
| 2026-04-21 13:38 | 37.94306 | 23.96183 | 287 ft | 43 kts | 216° |
| 2026-04-21 13:38 | 37.93880 | 23.95777 | 278 ft | 108 kts | 217° |
| 2026-04-21 13:38 | 37.93142 | 23.95075 | 318 ft | 154 kts | 217° |
| 2026-04-21 13:38 | 37.92264 | 23.94202 | 849 ft | 162 kts | 218° |
| 2026-04-21 13:39 | 37.91280 | 23.93433 | 1465 ft | 169 kts | 209° |
| 2026-04-21 13:39 | 37.90239 | 23.92701 | 2157 ft | 172 kts | 209° |
| 2026-04-21 13:39 | 37.89171 | 23.91974 | 2795 ft | 176 kts | 209° |
| 2026-04-21 13:39 | 37.88063 | 23.91256 | 3378 ft | 188 kts | 208° |
| 2026-04-21 13:40 | 37.86811 | 23.90518 | 3618 ft | 213 kts | 207° |
| 2026-04-21 13:40 | 37.85395 | 23.89647 | 3913 ft | 235 kts | 209° |
| 2026-04-21 13:40 | 37.83392 | 23.88354 | 4824 ft | 247 kts | 210° |
| 2026-04-21 13:40 | 37.82378 | 23.87682 | 5358 ft | 249 kts | 211° |
| 2026-04-21 13:41 | 37.80837 | 23.86650 | 6221 ft | 253 kts | 212° |
| 2026-04-21 13:41 | 37.79267 | 23.85594 | 7061 ft | 256 kts | 212° |
| 2026-04-21 13:41 | 37.77552 | 23.84887 | 7907 ft | 268 kts | 188° |
| 2026-04-21 13:41 | 37.75676 | 23.85207 | 8784 ft | 280 kts | 162° |
| 2026-04-21 13:42 | 37.73981 | 23.86566 | 9406 ft | 300 kts | 135° |
| 2026-04-21 13:42 | 37.72772 | 23.88769 | 10159 ft | 310 kts | 118° |
| 2026-04-21 13:42 | 37.71760 | 23.91256 | 10500 ft | 335 kts | 117° |
| 2026-04-21 13:42 | 37.70674 | 23.93985 | 10810 ft | 358 kts | 117° |
| 2026-04-21 13:43 | 37.69522 | 23.96819 | 11515 ft | 367 kts | 118° |
| 2026-04-21 13:43 | 37.68335 | 23.99697 | 12329 ft | 372 kts | 118° |
| 2026-04-21 13:43 | 37.67137 | 24.02577 | 12789 ft | 371 kts | 118° |
| 2026-04-21 13:43 | 37.65915 | 24.05502 | 12933 ft | 379 kts | 118° |
| 2026-04-21 13:44 | 37.64690 | 24.08476 | 12930 ft | 383 kts | 115° |
| 2026-04-21 13:44 | 37.63678 | 24.11571 | 12943 ft | 380 kts | 110° |
| 2026-04-21 13:44 | 37.62766 | 24.14704 | 12947 ft | 380 kts | 109° |
| 2026-04-21 13:44 | 37.61881 | 24.17841 | 12942 ft | 380 kts | 109° |
| 2026-04-21 13:45 | 37.60991 | 24.20985 | 12941 ft | 380 kts | 109° |
| 2026-04-21 13:45 | 37.60089 | 24.24136 | 12943 ft | 380 kts | 110° |
| 2026-04-21 13:45 | 37.59194 | 24.27224 | 12946 ft | 380 kts | 110° |
| 2026-04-21 13:45 | 37.58265 | 24.30397 | 12955 ft | 381 kts | 110° |
| 2026-04-21 13:46 | 37.57354 | 24.33493 | 12939 ft | 381 kts | 110° |
| 2026-04-21 13:46 | 37.56429 | 24.36621 | 12945 ft | 381 kts | 110° |
| 2026-04-21 13:46 | 37.55501 | 24.39752 | 12958 ft | 381 kts | 110° |
| 2026-04-21 13:46 | 37.54574 | 24.42875 | 12951 ft | 381 kts | 110° |
| 2026-04-21 13:47 | 37.53645 | 24.45999 | 12943 ft | 380 kts | 110° |
| 2026-04-21 13:47 | 37.52716 | 24.49121 | 12942 ft | 380 kts | 110° |
| 2026-04-21 13:47 | 37.51799 | 24.52198 | 12934 ft | 369 kts | 110° |
| 2026-04-21 13:47 | 37.50902 | 24.55208 | 12603 ft | 365 kts | 110° |
| 2026-04-21 13:48 | 37.50024 | 24.58148 | 12188 ft | 356 kts | 110° |
| 2026-04-21 13:48 | 37.49159 | 24.61044 | 11755 ft | 351 kts | 110° |
| 2026-04-21 13:48 | 37.48299 | 24.63918 | 11281 ft | 348 kts | 110° |
| 2026-04-21 13:48 | 37.47459 | 24.66723 | 10820 ft | 346 kts | 110° |
| 2026-04-21 13:49 | 37.46613 | 24.69546 | 10378 ft | 342 kts | 110° |
| 2026-04-21 13:49 | 37.45790 | 24.72288 | 10230 ft | 326 kts | 110° |
| 2026-04-21 13:49 | 37.45013 | 24.74875 | 10066 ft | 306 kts | 110° |
| 2026-04-21 13:49 | 37.44279 | 24.77314 | 9893 ft | 290 kts | 110° |
| 2026-04-21 13:50 | 37.43571 | 24.79670 | 9546 ft | 287 kts | 111° |
| 2026-04-21 13:50 | 37.42864 | 24.82017 | 9203 ft | 285 kts | 111° |
| 2026-04-21 13:50 | 37.42162 | 24.84347 | 8859 ft | 284 kts | 111° |
| 2026-04-21 13:50 | 37.41464 | 24.86663 | 8518 ft | 283 kts | 111° |
| 2026-04-21 13:51 | 37.40768 | 24.88972 | 8188 ft | 282 kts | 111° |
| 2026-04-21 13:51 | 37.40075 | 24.91266 | 7859 ft | 277 kts | 111° |
| 2026-04-21 13:51 | 37.39399 | 24.93500 | 7527 ft | 270 kts | 111° |
| 2026-04-21 13:51 | 37.38740 | 24.95677 | 7219 ft | 263 kts | 111° |
| 2026-04-21 13:52 | 37.38104 | 24.97778 | 6912 ft | 259 kts | 111° |
| 2026-04-21 13:52 | 37.37465 | 24.99890 | 6634 ft | 257 kts | 110° |
| 2026-04-21 13:52 | 37.37218 | 25.02065 | 6503 ft | 250 kts | 81° |
| 2026-04-21 13:52 | 37.37857 | 25.04067 | 6268 ft | 251 kts | 52° |
| 2026-04-21 13:53 | 37.39119 | 25.05570 | 5993 ft | 251 kts | 32° |
| 2026-04-21 13:53 | 37.40589 | 25.06732 | 5672 ft | 247 kts | 29° |
| 2026-04-21 13:53 | 37.42047 | 25.07819 | 5370 ft | 240 kts | 29° |
| 2026-04-21 13:53 | 37.43465 | 25.08881 | 5081 ft | 234 kts | 29° |
| 2026-04-21 13:54 | 37.44816 | 25.09905 | 4968 ft | 218 kts | 30° |
| 2026-04-21 13:54 | 37.46077 | 25.10870 | 4844 ft | 208 kts | 30° |
| 2026-04-21 13:54 | 37.47302 | 25.11812 | 4747 ft | 205 kts | 30° |
| 2026-04-21 13:54 | 37.48523 | 25.12753 | 4666 ft | 207 kts | 30° |
| 2026-04-21 13:55 | 37.49751 | 25.13699 | 4521 ft | 213 kts | 30° |
| 2026-04-21 13:55 | 37.50993 | 25.14727 | 4269 ft | 214 kts | 43° |
| 2026-04-21 13:55 | 37.51698 | 25.16319 | 4060 ft | 207 kts | 76° |
| 2026-04-21 13:55 | 37.52092 | 25.18025 | 3838 ft | 200 kts | 74° |
| 2026-04-21 13:56 | 37.52486 | 25.19679 | 3621 ft | 193 kts | 75° |
| 2026-04-21 13:56 | 37.52862 | 25.21262 | 3426 ft | 184 kts | 75° |
| 2026-04-21 13:56 | 37.53192 | 25.22803 | 3196 ft | 181 kts | 87° |
| 2026-04-21 13:56 | 37.53039 | 25.24341 | 3020 ft | 174 kts | 104° |
| 2026-04-21 13:57 | 37.52811 | 25.25806 | 2846 ft | 164 kts | 105° |
| 2026-04-21 13:57 | 37.52491 | 25.27099 | 2581 ft | 148 kts | 118° |
| 2026-04-21 13:57 | 37.51989 | 25.28176 | 2352 ft | 140 kts | 131° |
| 2026-04-21 13:57 | 37.51321 | 25.29068 | 2159 ft | 141 kts | 144° |
| 2026-04-21 13:58 | 37.50534 | 25.29806 | 1958 ft | 141 kts | 151° |
| 2026-04-21 13:58 | 37.49724 | 25.30498 | 1747 ft | 140 kts | 151° |
| 2026-04-21 13:58 | 37.48922 | 25.31183 | 1539 ft | 139 kts | 151° |
| 2026-04-21 13:58 | 37.48117 | 25.31870 | 1379 ft | 141 kts | 151° |
| 2026-04-21 13:59 | 37.47312 | 25.32561 | 1142 ft | 138 kts | 150° |
| 2026-04-21 13:59 | 37.46526 | 25.33236 | 942 ft | 136 kts | 150° |
| 2026-04-21 13:59 | 37.45722 | 25.33866 | 731 ft | 135 kts | 162° |
| 2026-04-21 13:59 | 37.44843 | 25.34237 | 537 ft | 133 kts | 168° |
| 2026-04-21 14:00 | 37.43982 | 25.34613 | 412 ft | 129 kts | 162° |
| 2026-04-21 14:00 | 37.43235 | 25.34945 | 412 ft | 89 kts | 160° |
| 2026-04-21 14:00 | 37.42937 | 25.35076 | 412 ft | 20 kts | 163° |
| 2026-04-21 14:00 | 37.42811 | 25.35135 | 410 ft | 15 kts | 158° |
| 2026-04-21 14:01 | 37.42737 | 25.35187 | 409 ft | 8 kts | 199° |
| 2026-04-21 14:01 | 37.42749 | 25.35141 | 409 ft | 11 kts | 332° |
| 2026-04-21 14:01 | 37.42827 | 25.35123 | 410 ft | 14 kts | 341° |
| 2026-04-21 14:01 | 37.42925 | 25.35082 | 410 ft | 15 kts | 341° |
| 2026-04-21 14:02 | 37.43038 | 25.35032 | 409 ft | 22 kts | 341° |
| 2026-04-21 14:02 | 37.43190 | 25.34964 | 411 ft | 22 kts | 341° |
| 2026-04-21 14:02 | 37.43322 | 25.34906 | 408 ft | 19 kts | 340° |
| 2026-04-21 14:03 | 37.43452 | 25.34736 | 407 ft | 2 kts | 335° |
| 2026-04-21 14:03 | 37.43473 | 25.34704 | 406 ft | 8 kts | 277° |
| 2026-04-21 14:03 | 37.43467 | 25.34671 | 402 ft | 3 kts | 254° |
| 2026-04-21 14:03 | 37.43466 | 25.34668 | 403 ft | 0 kts | 252° |